Time;durP1;ratioP1;P1;durP2;ratioP2;P2;SDS_P1;SDS_P2;PMS_P1;PMS_P2;Temp;Humidity;BMP_temperature;BMP_pressure;BME280_temperature;BME280_humidity;BME280_pressure;Samples;Min_cycle;Max_cycle;Signal;HPM_P1;HPM_P2
2021/07/31 00:00:46;;;;;;;6.30;5.57;;;;;;;15.22;100.00;93758.41;5092209;28;20030;-54
2021/07/31 00:03:12;;;;;;;6.97;5.65;;;;;;;15.25;100.00;93759.66;5091965;28;20429;-57
2021/07/31 00:05:47;;;;;;;10.57;6.00;;;;;;;15.25;100.00;93760.44;5092112;28;20024;-59
2021/07/31 00:08:12;;;;;;;7.22;5.65;;;;;;;15.23;100.00;93759.19;5092208;28;20395;-56
2021/07/31 00:10:46;;;;;;;11.57;6.32;;;;;;;15.19;100.00;93764.44;5089707;28;20035;-58
2021/07/31 00:13:11;;;;;;;8.20;5.95;;;;;;;15.15;100.00;93763.50;5089864;28;20113;-54
2021/07/31 00:15:43;;;;;;;7.05;5.68;;;;;;;15.13;100.00;93759.56;5091269;28;20050;-58
2021/07/31 00:18:14;;;;;;;7.80;5.85;;;;;;;15.12;100.00;93750.69;5071750;28;20016;-58
2021/07/31 00:20:47;;;;;;;8.00;6.22;;;;;;;15.11;100.00;93759.91;5091020;28;20031;-58
2021/07/31 00:23:20;;;;;;;;;;;;;;;15.08;100.00;93763.22;5090506;28;20020;-58
2021/07/31 00:25:45;;;;;;;7.80;5.60;;;;;;;15.03;100.00;93764.22;5092188;28;19951;-57
2021/07/31 00:28:11;;;;;;;9.88;5.80;;;;;;;14.98;100.00;93774.41;5095096;28;20161;-54
2021/07/31 00:30:42;;;;;;;7.68;6.03;;;;;;;14.91;100.00;93780.28;5092935;28;20150;-53
2021/07/31 00:33:07;;;;;;;9.48;5.72;;;;;;;14.88;100.00;93767.47;5095240;28;20509;-55
2021/07/31 00:35:39;;;;;;;8.27;6.05;;;;;;;14.89;100.00;93776.34;5093746;28;20047;-54
2021/07/31 00:38:14;;;;;;;8.00;6.20;;;;;;;14.88;100.00;93769.38;5095035;28;20475;-52
2021/07/31 00:40:39;;;;;;;7.43;6.00;;;;;;;14.90;100.00;93773.31;5094463;28;20024;-51
2021/07/31 00:43:11;;;;;;;8.32;5.63;;;;;;;14.87;100.00;93765.88;5094355;28;20097;-52
2021/07/31 00:45:42;;;;;;;8.30;5.90;;;;;;;14.83;100.00;93766.84;5094836;28;20433;-56
2021/07/31 00:48:13;;;;;;;8.23;6.10;;;;;;;14.75;100.00;93768.44;5095124;28;20470;-53
2021/07/31 00:50:43;;;;;;;8.52;5.78;;;;;;;14.69;100.00;93767.03;5093259;28;20432;-50
2021/07/31 00:53:14;;;;;;;11.25;6.32;;;;;;;14.65;100.00;93766.09;5094728;28;20024;-50
2021/07/31 00:55:48;;;;;;;7.00;5.97;;;;;;;14.60;100.00;93769.75;5094601;28;20019;-51
2021/07/31 00:58:13;;;;;;;8.13;6.40;;;;;;;14.55;100.00;93769.16;5093371;28;20077;-54
2021/07/31 01:00:42;;;;;;;7.55;5.70;;;;;;;14.47;100.00;93768.06;5094258;28;20425;-52
2021/07/31 01:03:08;;;;;;;6.18;5.35;;;;;;;14.42;100.00;93768.97;5094469;28;20077;-50
2021/07/31 01:05:37;;;;;;;9.43;6.13;;;;;;;14.35;100.00;93774.09;5094357;28;20487;-52
2021/07/31 01:08:11;;;;;;;10.02;6.13;;;;;;;14.29;100.00;93780.72;5094273;28;20154;-53
2021/07/31 01:10:41;;;;;;;7.50;5.47;;;;;;;14.23;100.00;93782.03;5093834;28;20027;-53
2021/07/31 01:13:08;;;;;;;8.45;5.80;;;;;;;14.15;100.00;93794.38;5090187;28;20027;-52
2021/07/31 01:15:37;;;;;;;7.32;6.10;;;;;;;14.10;100.00;93797.22;5094119;28;20031;-51
2021/07/31 01:18:05;;;;;;;7.65;5.38;;;;;;;14.06;100.00;93796.28;5093865;28;20505;-56
2021/07/31 01:20:38;;;;;;;9.82;5.97;;;;;;;14.04;100.00;93801.19;5093466;28;20027;-57
2021/07/31 01:23:06;;;;;;;11.25;6.28;;;;;;;14.06;100.00;93792.81;5094011;28;20035;-57
2021/07/31 01:25:37;;;;;;;9.30;6.25;;;;;;;14.12;100.00;93786.94;5094071;28;20085;-54
2021/07/31 01:28:09;;;;;;;9.20;5.28;;;;;;;14.13;100.00;93783.16;5093982;28;20027;-54
2021/07/31 01:30:34;;;;;;;6.95;5.60;;;;;;;14.17;100.00;93783.28;5092279;28;20080;-52
2021/07/31 01:33:06;;;;;;;6.57;5.72;;;;;;;14.20;100.00;93783.44;5065650;28;20027;-51
2021/07/31 01:35:31;;;;;;;13.98;5.88;;;;;;;14.27;100.00;93774.88;5092521;28;20016;-52
2021/07/31 01:38:01;;;;;;;7.53;5.38;;;;;;;14.36;100.00;93780.25;5093511;28;20080;-49
2021/07/31 01:40:36;;;;;;;7.22;5.00;;;;;;;14.39;100.00;93777.72;5093205;28;20073;-57
2021/07/31 01:43:04;;;;;;;6.80;6.00;;;;;;;14.38;100.00;93776.13;5092268;28;20028;-56
2021/07/31 01:45:32;;;;;;;6.97;5.60;;;;;;;14.46;100.00;93769.19;5079319;28;20027;-54
2021/07/31 01:47:58;;;;;;;7.43;5.88;;;;;;;14.47;100.00;93759.97;5092693;28;20020;-55
2021/07/31 01:50:26;;;;;;;7.65;5.97;;;;;;;14.67;100.00;93750.41;5093030;28;20416;-53
2021/07/31 01:52:51;;;;;;;10.82;5.75;;;;;;;14.66;100.00;93744.25;5093746;28;20047;-58
2021/07/31 01:55:19;;;;;;;10.00;6.20;;;;;;;14.60;100.00;93742.81;5093419;28;20024;-57
2021/07/31 01:57:44;;;;;;;7.57;6.15;;;;;;;14.54;100.00;93743.31;5093208;28;20032;-56
2021/07/31 02:00:10;;;;;;;9.05;6.07;;;;;;;14.48;100.00;93754.28;5091908;28;20125;-56
2021/07/31 02:02:35;;;;;;;7.45;5.40;;;;;;;14.42;100.00;93760.09;5093372;28;20104;-56
2021/07/31 02:05:22;;;;;;;6.60;5.22;;;;;;;14.36;100.00;93758.72;5093140;28;20032;-57
2021/07/31 02:07:48;;;;;;;7.70;5.78;;;;;;;14.32;100.00;93760.44;5093174;28;20028;-58
2021/07/31 02:10:18;;;;;;;8.48;4.75;;;;;;;14.27;100.00;93774.88;5092489;28;20036;-56
2021/07/31 02:12:48;;;;;;;8.07;5.30;;;;;;;14.26;100.00;93775.19;5078486;28;20033;-59
2021/07/31 02:15:16;;;;;;;8.18;5.68;;;;;;;14.25;100.00;93782.50;5093191;28;20016;-59
2021/07/31 02:17:42;;;;;;;7.88;5.38;;;;;;;14.26;100.00;93772.50;5091939;28;20032;-57
2021/07/31 02:20:13;;;;;;;11.23;5.47;;;;;;;14.25;100.00;93773.63;5092575;28;20493;-53
2021/07/31 02:22:50;;;;;;;7.75;5.50;;;;;;;14.32;100.00;93771.22;5091750;28;20028;-55
2021/07/31 02:25:15;;;;;;;8.65;6.38;;;;;;;14.38;100.00;93769.94;5092646;28;20448;-53
2021/07/31 02:27:41;;;;;;;6.60;5.68;;;;;;;14.44;100.00;93763.28;5093032;28;20130;-52
2021/07/31 02:30:11;;;;;;;7.13;5.72;;;;;;;14.48;100.00;93751.56;5090935;28;20039;-56
2021/07/31 02:32:37;;;;;;;8.50;6.10;;;;;;;14.53;100.00;93750.59;5091467;28;20028;-56
2021/07/31 02:35:06;;;;;;;6.97;5.72;;;;;;;14.53;100.00;93752.50;5091366;28;20073;-55
2021/07/31 02:37:31;;;;;;;9.02;5.60;;;;;;;14.54;100.00;93752.19;5091839;28;20382;-52
2021/07/31 02:39:57;;;;;;;8.77;5.93;;;;;;;14.56;100.00;93746.50;5091968;28;20030;-57
2021/07/31 02:42:22;;;;;;;6.20;5.32;;;;;;;14.55;100.00;93750.31;5092716;28;20424;-58
2021/07/31 02:44:54;;;;;;;7.55;5.65;;;;;;;14.53;100.00;93749.81;5092331;28;20066;-57
2021/07/31 02:47:25;;;;;;;9.45;5.88;;;;;;;14.52;100.00;93751.72;5074082;28;20016;-58
2021/07/31 02:49:54;;;;;;;7.88;5.93;;;;;;;14.50;100.00;93743.94;5072966;28;20020;-55
2021/07/31 02:52:25;;;;;;;7.93;5.35;;;;;;;14.54;100.00;93741.41;5092272;28;20030;-58
2021/07/31 02:54:56;;;;;;;8.45;5.72;;;;;;;14.56;100.00;93741.09;5092378;28;20012;-58
2021/07/31 02:57:24;;;;;;;8.30;5.20;;;;;;;14.56;100.00;93730.31;5074676;28;20486;-58
2021/07/31 02:59:52;;;;;;;8.48;5.15;;;;;;;14.55;100.00;93728.75;5073932;28;20039;-58
2021/07/31 03:02:31;;;;;;;8.10;5.32;;;;;;;14.53;100.00;93723.66;5073228;28;20058;-58
2021/07/31 03:04:56;;;;;;;7.15;5.13;;;;;;;14.52;100.00;93729.38;5071582;28;20028;-58
2021/07/31 03:07:22;;;;;;;8.27;5.60;;;;;;;14.52;100.00;93729.38;5071691;28;20020;-58
2021/07/31 03:09:47;;;;;;;8.13;5.55;;;;;;;14.49;100.00;93722.72;5071324;28;20468;-57
2021/07/31 03:12:13;;;;;;;10.45;6.13;;;;;;;14.44;100.00;93723.72;5074034;28;20411;-57
2021/07/31 03:14:39;;;;;;;12.00;5.38;;;;;;;14.38;100.00;93733.03;5092150;28;20368;-53
2021/07/31 03:17:10;;;;;;;7.00;5.53;;;;;;;14.33;100.00;93738.59;5074123;28;20026;-53
2021/07/31 03:19:38;;;;;;;10.82;5.35;;;;;;;14.30;100.00;93743.81;5091395;28;20023;-52
2021/07/31 03:22:11;;;;;;;6.15;4.78;;;;;;;14.24;100.00;93742.41;5091834;28;20058;-51
2021/07/31 03:24:37;;;;;;;8.52;5.35;;;;;;;14.19;100.00;93748.75;5091842;28;20089;-51
2021/07/31 03:27:07;;;;;;;7.50;5.20;;;;;;;14.18;100.00;93742.56;5091677;28;20514;-53
2021/07/31 03:29:33;;;;;;;8.40;5.10;;;;;;;14.17;100.00;93740.19;5091323;28;20055;-53
2021/07/31 03:32:07;;;;;;;10.25;4.68;;;;;;;14.14;100.00;93748.94;5073524;28;20031;-51
2021/07/31 03:34:35;;;;;;;9.98;5.05;;;;;;;14.11;100.00;93758.44;5091724;28;20040;-58
2021/07/31 03:37:01;;;;;;;7.18;5.40;;;;;;;14.10;100.00;93750.66;5073554;28;20047;-58
2021/07/31 03:39:37;;;;;;;9.10;5.90;;;;;;;14.08;100.00;93750.97;5072898;28;20020;-58
2021/07/31 03:42:06;;;;;;;5.53;4.85;;;;;;;14.05;100.00;93757.00;5073485;28;20046;-57
2021/07/31 03:44:37;;;;;;;6.75;4.90;;;;;;;13.99;100.00;93757.47;5091273;28;20048;-55
2021/07/31 03:47:22;;;;;;;7.82;5.05;;;;;;;13.97;100.00;93754.31;5073475;28;20027;-58
2021/07/31 03:49:54;;;;;;;13.10;5.78;;;;;;;13.94;100.00;93758.44;5072906;28;20102;-57
2021/07/31 03:52:19;;;;;;;12.25;4.65;;;;;;;13.91;100.00;93754.50;5091462;28;20428;-58
2021/07/31 03:54:44;;;;;;;6.90;4.40;;;;;;;13.89;100.00;93756.72;5073362;28;20020;-57
2021/07/31 03:57:10;;;;;;;8.68;5.32;;;;;;;13.91;100.00;93756.41;5091447;28;20115;-58
2021/07/31 03:59:50;;;;;;;16.92;5.50;;;;;;;13.92;100.00;93763.38;5073615;28;20081;-55
2021/07/31 04:02:16;;;;;;;5.95;4.68;;;;;;;13.90;100.00;93763.69;5095469;28;20043;-56
2021/07/31 04:04:41;;;;;;;8.63;4.68;;;;;;;13.88;100.00;93768.56;5095513;28;20024;-58
2021/07/31 04:07:09;;;;;;;7.60;4.80;;;;;;;13.89;100.00;93766.66;5095791;28;20028;-56
2021/07/31 04:09:35;;;;;;;7.18;4.60;;;;;;;13.88;100.00;93767.78;5060227;28;20390;-58
2021/07/31 04:12:00;;;;;;;7.95;4.75;;;;;;;13.89;100.00;93772.06;5079136;28;20024;-53
2021/07/31 04:14:26;;;;;;;11.85;5.07;;;;;;;13.88;100.00;93765.88;5085801;28;20471;-48
2021/07/31 04:16:54;;;;;;;11.05;5.10;;;;;;;13.90;100.00;93765.59;5077846;28;20086;-48
2021/07/31 04:19:21;;;;;;;9.85;5.25;;;;;;;13.98;100.00;93767.47;5086105;28;20390;-52
2021/07/31 04:21:58;;;;;;;10.73;5.68;;;;;;;14.02;100.00;93764.94;5094815;28;20443;-52
2021/07/31 04:24:36;;;;;;;7.50;5.32;;;;;;;14.04;100.00;93763.50;5096080;28;20425;-50
2021/07/31 04:27:04;;;;;;;11.40;5.22;;;;;;;14.06;100.00;93755.91;5095717;28;20536;-50
2021/07/31 04:29:30;;;;;;;9.05;5.55;;;;;;;14.07;100.00;93768.25;5077694;28;20382;-50
2021/07/31 04:31:58;;;;;;;8.98;5.28;;;;;;;14.07;100.00;93767.47;5084229;28;20107;-49
2021/07/31 04:34:23;;;;;;;10.77;5.10;;;;;;;14.07;100.00;93760.16;5078061;28;20386;-51
2021/07/31 04:36:49;;;;;;;10.20;5.78;;;;;;;14.06;100.00;93766.66;5077570;28;20118;-50
2021/07/31 04:39:14;;;;;;;8.50;5.80;;;;;;;14.09;100.00;93760.63;5095645;28;20024;-52
2021/07/31 04:41:43;;;;;;;14.13;5.55;;;;;;;14.13;100.00;93758.13;5077488;28;20051;-50
2021/07/31 04:44:08;;;;;;;8.23;5.65;;;;;;;14.15;100.00;93761.28;5083309;28;20526;-48
2021/07/31 04:46:36;;;;;;;8.40;5.68;;;;;;;14.15;100.00;93755.91;5075075;28;20032;-53
2021/07/31 04:49:08;;;;;;;10.27;6.00;;;;;;;14.16;100.00;93758.25;5070693;28;20028;-54
2021/07/31 04:51:56;;;;;;;9.13;5.88;;;;;;;14.21;100.00;93759.97;5075272;28;20029;-58
2021/07/31 04:54:31;;;;;;;9.68;5.43;;;;;;;14.24;100.00;93745.91;5075575;28;20021;-56
2021/07/31 04:56:56;;;;;;;8.55;5.43;;;;;;;14.29;100.00;93743.03;5075045;28;20491;-54
2021/07/31 04:59:21;;;;;;;8.15;5.35;;;;;;;14.36;100.00;93737.16;5074947;28;20028;-56
2021/07/31 05:01:50;;;;;;;8.80;5.70;;;;;;;14.38;100.00;93743.00;5075046;28;20074;-56
2021/07/31 05:04:18;;;;;;;10.02;5.97;;;;;;;14.40;100.00;93736.19;5074935;28;20028;-56
2021/07/31 05:06:46;;;;;;;11.90;5.50;;;;;;;14.45;100.00;93727.19;5074983;28;20031;-52
2021/07/31 05:09:14;;;;;;;9.38;5.50;;;;;;;14.47;100.00;93731.13;5074841;28;20361;-50
2021/07/31 05:11:42;;;;;;;6.53;4.78;;;;;;;14.52;100.00;93734.75;5074190;28;20071;-48
2021/07/31 05:14:16;;;;;;;5.93;5.20;;;;;;;14.56;100.00;93731.13;5074800;28;20104;-52
2021/07/31 05:16:42;;;;;;;11.40;5.32;;;;;;;14.64;100.00;93732.19;5047001;28;20395;-49
2021/07/31 05:19:13;;;;;;;11.38;6.57;;;;;;;14.68;100.00;93725.03;5075096;28;20029;-52
2021/07/31 05:21:43;;;;;;;10.60;5.85;;;;;;;14.70;100.00;93728.19;5070038;28;20425;-50
2021/07/31 05:24:12;;;;;;;8.30;5.90;;;;;;;14.71;100.00;93727.09;5072201;28;20135;-52
2021/07/31 05:26:39;;;;;;;6.18;5.40;;;;;;;14.71;100.00;93727.88;5057097;28;20062;-49
2021/07/31 05:29:08;;;;;;;7.57;5.43;;;;;;;14.76;100.00;93725.00;5074381;28;20124;-50
2021/07/31 05:31:44;;;;;;;6.95;5.60;;;;;;;14.80;100.00;93725.16;5074507;28;20031;-49
2021/07/31 05:34:10;;;;;;;8.65;5.45;;;;;;;14.80;100.00;93719.75;5056402;28;20020;-55
2021/07/31 05:36:37;;;;;;;10.43;5.57;;;;;;;14.81;100.00;93715.94;5074233;28;20119;-52
2021/07/31 05:39:03;;;;;;;8.27;5.55;;;;;;;14.84;100.00;93717.19;5074201;28;20027;-51
2021/07/31 05:41:28;;;;;;;9.80;5.85;;;;;;;14.85;100.00;93708.00;5074327;28;20028;-51
2021/07/31 05:43:54;;;;;;;10.52;5.35;;;;;;;14.85;100.00;93710.69;5084045;28;20036;-48
2021/07/31 05:46:19;;;;;;;6.68;5.72;;;;;;;14.82;100.00;93714.03;5094226;28;20043;-50
2021/07/31 05:48:46;;;;;;;9.15;5.93;;;;;;;14.82;100.00;93714.03;5092181;28;20020;-52
2021/07/31 05:51:12;;;;;;;9.90;5.15;;;;;;;14.85;100.00;93716.88;5056042;28;20111;-52
2021/07/31 05:53:38;;;;;;;7.75;4.85;;;;;;;14.85;100.00;93721.47;5074130;28;20032;-54
2021/07/31 05:56:09;;;;;;;7.95;5.10;;;;;;;14.86;100.00;93712.25;5042955;28;20021;-53
2021/07/31 05:58:36;;;;;;;5.65;4.93;;;;;;;14.84;100.00;93711.81;5094339;28;20451;-53
2021/07/31 06:01:06;;;;;;;7.20;4.63;;;;;;;14.86;100.00;93721.13;5093920;28;20020;-56
2021/07/31 06:03:35;;;;;;;5.97;4.32;;;;;;;14.82;100.00;93719.44;5093890;28;20391;-55
2021/07/31 06:06:07;;;;;;;7.35;4.53;;;;;;;14.87;100.00;93714.66;5075951;28;20482;-56
2021/07/31 06:08:35;;;;;;;8.15;4.65;;;;;;;14.90;100.00;93702.44;5093941;28;20387;-55
2021/07/31 06:11:02;;;;;;;8.18;4.55;;;;;;;14.83;100.00;93716.41;5085698;28;20020;-57
2021/07/31 06:13:28;;;;;;;8.32;4.03;;;;;;;14.88;100.00;93704.66;5071613;28;20111;-56
2021/07/31 06:15:56;;;;;;;7.43;3.80;;;;;;;14.87;100.00;93709.28;5064838;28;20454;-57
2021/07/31 06:18:21;;;;;;;6.80;4.22;;;;;;;14.88;100.00;93705.47;5092965;28;20028;-57
2021/07/31 06:20:50;;;;;;;5.85;4.18;;;;;;;14.93;100.00;93704.47;5072621;28;20501;-57
2021/07/31 06:23:28;;;;;;;8.15;4.85;;;;;;;14.91;100.00;93699.41;5091886;28;20039;-57
2021/07/31 06:26:03;;;;;;;4.43;3.38;;;;;;;14.86;100.00;93706.88;5092839;28;20078;-57
2021/07/31 06:28:37;;;;;;;4.53;3.85;;;;;;;14.89;100.00;93712.44;5083379;28;20380;-56
2021/07/31 06:31:04;;;;;;;6.43;3.78;;;;;;;14.92;100.00;93709.06;5091335;28;20062;-57
2021/07/31 06:33:32;;;;;;;8.48;3.97;;;;;;;14.93;100.00;93709.88;5092820;28;20490;-57
2021/07/31 06:36:00;;;;;;;4.75;3.40;;;;;;;14.93;100.00;93716.03;5092627;28;20060;-57
2021/07/31 06:38:25;;;;;;;5.13;3.55;;;;;;;14.97;100.00;93714.25;5092682;28;20418;-58
2021/07/31 06:40:53;;;;;;;5.25;3.58;;;;;;;15.04;100.00;93705.69;5073900;28;20024;-56
2021/07/31 06:43:18;;;;;;;4.78;3.10;;;;;;;15.11;100.00;93707.88;5092350;28;20048;-55
2021/07/31 06:45:48;;;;;;;5.55;3.25;;;;;;;15.20;100.00;93704.00;5069945;28;20035;-48
2021/07/31 06:48:14;;;;;;;8.18;3.85;;;;;;;15.27;100.00;93701.56;5074298;28;20114;-49
2021/07/31 06:50:41;;;;;;;7.45;3.17;;;;;;;15.38;100.00;93704.66;5092148;28;20168;-49
2021/07/31 06:53:09;;;;;;;8.85;3.00;;;;;;;15.45;100.00;93687.97;5092384;28;20020;-50
2021/07/31 06:55:34;;;;;;;6.18;2.97;;;;;;;15.62;100.00;93685.94;5092518;28;20503;-52
2021/07/31 06:58:00;;;;;;;6.70;2.78;;;;;;;15.74;100.00;93676.31;5092233;28;20031;-54
2021/07/31 07:00:28;;;;;;;5.00;2.70;;;;;;;15.80;100.00;93666.91;5073554;28;20066;-56
2021/07/31 07:03:03;;;;;;;7.05;2.90;;;;;;;15.89;100.00;93657.59;5092154;28;20020;-57
2021/07/31 07:05:31;;;;;;;4.47;2.90;;;;;;;16.01;100.00;93656.06;5092105;28;20062;-56
2021/07/31 07:08:00;;;;;;;7.20;2.30;;;;;;;16.13;100.00;93642.59;5091894;28;20530;-57
2021/07/31 07:10:32;;;;;;;6.28;2.72;;;;;;;16.17;100.00;93635.38;5091586;28;20020;-56
2021/07/31 07:13:00;;;;;;;6.68;3.05;;;;;;;16.24;100.00;93633.72;5078341;28;20024;-58
2021/07/31 07:15:28;;;;;;;6.53;2.50;;;;;;;16.30;100.00;93634.31;5092014;28;20046;-55
2021/07/31 07:17:58;;;;;;;4.80;2.60;;;;;;;16.39;100.00;93626.06;5091926;28;20526;-58
2021/07/31 07:20:26;;;;;;;5.28;2.88;;;;;;;16.46;100.00;93618.97;5088440;28;20085;-58
2021/07/31 07:22:53;;;;;;;5.50;3.03;;;;;;;16.57;100.00;93603.13;5091672;28;20024;-58
2021/07/31 07:25:22;;;;;;;8.23;2.58;;;;;;;16.74;100.00;93591.31;5074069;28;20383;-57
2021/07/31 07:27:49;;;;;;;7.75;2.90;;;;;;;16.88;100.00;93572.81;5091674;28;20482;-55
2021/07/31 07:30:15;;;;;;;7.07;2.63;;;;;;;17.06;100.00;93543.59;5091422;28;20034;-57
2021/07/31 07:32:46;;;;;;;4.72;2.28;;;;;;;17.18;100.00;93529.25;5091862;28;20020;-56
2021/07/31 07:35:32;;;;;;;4.82;2.40;;;;;;;17.32;100.00;93511.47;5091339;28;20020;-56
2021/07/31 07:38:01;;;;;;;5.18;1.80;;;;;;;17.64;100.00;93468.22;5091713;28;20031;-57
2021/07/31 07:40:33;;;;;;;6.22;2.13;;;;;;;17.86;100.00;93453.31;5091169;28;20051;-55
2021/07/31 07:43:05;;;;;;;;;;;;;;;18.08;100.00;93433.72;5073814;28;20544;-56
2021/07/31 07:45:34;;;;;;;4.15;2.17;;;;;;;18.26;100.00;93436.84;5086462;28;19920;-54
2021/07/31 07:48:07;;;;;;;5.22;2.38;;;;;;;18.34;100.00;93452.13;5083411;28;20036;-57
2021/07/31 07:50:33;;;;;;;6.38;2.55;;;;;;;18.34;100.00;93511.75;5090859;28;20448;-51
2021/07/31 07:53:02;;;;;;;5.75;2.40;;;;;;;18.41;100.00;93543.69;5090769;28;20563;-50
2021/07/31 07:55:39;;;;;;;5.97;2.15;;;;;;;18.53;100.00;93554.41;5072416;28;20447;-57
2021/07/31 07:58:20;;;;;;;5.68;2.50;;;;;;;18.69;100.00;93574.22;5091261;28;20500;-55
2021/07/31 08:00:45;;;;;;;7.55;2.33;;;;;;;18.81;100.00;93584.94;5072725;28;20061;-53
2021/07/31 08:03:12;;;;;;;5.70;2.05;;;;;;;18.95;100.00;93655.03;5091613;28;20020;-54
2021/07/31 08:05:40;;;;;;;6.43;2.15;;;;;;;19.05;100.00;93694.41;5073498;28;20035;-51
2021/07/31 08:08:09;;;;;;;5.85;2.28;;;;;;;19.14;100.00;93729.50;5091308;28;20048;-52
2021/07/31 08:10:35;;;;;;;6.55;2.13;;;;;;;19.29;100.00;93744.97;5072745;28;20031;-54
2021/07/31 08:13:01;;;;;;;5.32;2.42;;;;;;;19.40;100.00;93738.66;5076753;28;20168;-50
2021/07/31 08:15:29;;;;;;;6.32;1.90;;;;;;;19.53;100.00;93785.50;5091282;28;20027;-53
2021/07/31 08:17:55;;;;;;;8.77;2.20;;;;;;;19.58;100.00;93845.03;5091542;28;20352;-57
2021/07/31 08:20:22;;;;;;;3.80;1.85;;;;;;;19.63;100.00;93885.50;5072755;28;20024;-54
2021/07/31 08:22:48;;;;;;;5.53;2.53;;;;;;;19.61;100.00;93912.22;5091243;28;20024;-59
2021/07/31 08:25:20;;;;;;;7.05;2.25;;;;;;;19.65;100.00;93934.84;5091020;28;20038;-58
2021/07/31 08:27:47;;;;;;;4.97;1.90;;;;;;;19.76;100.00;93964.22;5091106;28;20036;-59
2021/07/31 08:30:13;;;;;;;4.43;2.10;;;;;;;19.72;100.00;94007.59;5090680;28;20411;-60
2021/07/31 08:32:50;;;;;;;3.53;1.90;;;;;;;19.65;100.00;94048.16;5091263;28;20027;-59
2021/07/31 08:35:22;;;;;;;4.55;2.38;;;;;;;19.72;100.00;94045.63;5073244;28;20023;-58
2021/07/31 08:37:47;;;;;;;10.17;2.57;;;;;;;19.74;100.00;94078.66;5072944;28;20016;-58
2021/07/31 08:40:13;;;;;;;9.75;2.60;;;;;;;19.74;100.00;94119.41;5090787;28;20027;-60
2021/07/31 08:42:45;;;;;;;4.60;1.98;;;;;;;19.84;100.00;94107.25;5073014;28;20382;-58
2021/07/31 08:45:15;;;;;;;4.82;1.88;;;;;;;19.86;100.00;94146.56;5051638;28;20048;-54
2021/07/31 08:47:44;;;;;;;4.80;2.85;;;;;;;19.81;100.00;94205.78;5072765;28;20036;-58
2021/07/31 08:50:11;;;;;;;4.95;2.00;;;;;;;19.91;100.00;94218.91;5072722;28;20707;-56
2021/07/31 08:52:39;;;;;;;6.18;1.88;;;;;;;19.81;100.00;94239.19;5072868;28;20068;-53
2021/07/31 08:55:05;;;;;;;3.70;1.85;;;;;;;19.94;100.00;94291.56;5055254;28;20020;-57
2021/07/31 08:57:30;;;;;;;3.22;1.60;;;;;;;19.97;100.00;94334.38;5055965;28;20032;-57
2021/07/31 08:59:58;;;;;;;5.28;1.98;;;;;;;20.11;100.00;94306.84;5073399;28;20028;-53
2021/07/31 09:02:41;;;;;;;4.35;1.90;;;;;;;20.18;100.00;94301.59;5094133;28;20039;-55
2021/07/31 09:05:08;;;;;;;6.70;1.90;;;;;;;20.25;100.00;94386.13;5093219;28;20051;-56
2021/07/31 09:07:34;;;;;;;3.53;1.88;;;;;;;20.39;100.00;94351.16;5076287;28;20020;-54
2021/07/31 09:10:41;;;;;;;6.50;1.80;;;;;;;20.25;100.00;94392.34;5076167;28;20035;-51
2021/07/31 09:13:15;;;;;;;3.92;1.90;;;;;;;20.66;100.00;94357.81;5032213;28;20069;-56
2021/07/31 09:15:52;;;;;;;4.35;1.90;;;;;;;20.83;100.00;94379.28;5094129;28;20391;-60
2021/07/31 09:18:21;;;;;;;5.00;1.98;;;;;;;21.06;100.00;94474.03;5094471;28;20049;-51
2021/07/31 09:20:59;;;;;;;2.47;1.65;;;;;;;21.36;100.00;94395.50;5093801;28;20027;-57
2021/07/31 09:23:44;;;;;;;3.88;1.92;;;;;;;21.80;100.00;94401.69;5094006;28;20028;-54
2021/07/31 09:26:13;;;;;;;4.30;2.00;;;;;;;21.81;100.00;94419.63;5094125;28;20023;-53
2021/07/31 09:28:59;;;;;;;5.75;1.95;;;;;;;22.09;100.00;94478.75;5076519;28;20016;-54
2021/07/31 09:31:54;;;;;;;6.55;2.38;;;;;;;22.47;100.00;94588.06;5075530;28;20032;-52
2021/07/31 09:34:26;;;;;;;3.60;1.92;;;;;;;22.55;100.00;94617.13;5093920;28;20027;-57
2021/07/31 09:37:09;;;;;;;9.25;2.55;;;;;;;22.71;100.00;94614.41;5093675;28;20016;-55
2021/07/31 09:39:58;;;;;;;5.68;1.80;;;;;;;22.77;100.00;94580.19;5093868;28;20024;-56
2021/07/31 09:42:44;;;;;;;5.75;2.00;;;;;;;23.12;100.00;94546.72;5093216;28;20028;-57
2021/07/31 09:45:15;;;;;;;6.38;1.85;;;;;;;23.16;100.00;94550.28;5093770;28;20089;-55
2021/07/31 09:47:59;;;;;;;3.67;1.92;;;;;;;23.27;100.00;94605.97;5075645;28;20020;-60
2021/07/31 09:50:54;;;;;;;6.00;1.90;;;;;;;23.15;100.00;94600.63;5093396;28;20016;-60
2021/07/31 09:53:27;;;;;;;4.95;2.00;;;;;;;23.52;100.00;94642.03;5076323;28;20032;-59
2021/07/31 09:55:59;;;;;;;5.70;2.08;;;;;;;23.70;100.00;94736.22;5093832;28;20098;-60
2021/07/31 09:58:31;;;;;;;5.10;1.77;;;;;;;23.75;100.00;94728.88;5092524;28;20364;-60
2021/07/31 10:00:58;;;;;;;3.75;2.10;;;;;;;24.07;100.00;94689.31;5091785;28;20274;-59
2021/07/31 10:03:25;;;;;;;5.10;1.77;;;;;;;23.73;100.00;94852.28;5093341;28;20487;-60
2021/07/31 10:05:51;;;;;;;4.32;1.80;;;;;;;24.08;100.00;94778.44;5093343;28;20030;-60
2021/07/31 10:08:20;;;;;;;4.70;1.90;;;;;;;24.19;100.00;94760.31;5093332;28;20035;-59
2021/07/31 10:10:51;;;;;;;3.92;1.90;;;;;;;24.46;100.00;94829.75;5092887;28;20031;-58
2021/07/31 10:13:23;;;;;;;4.60;2.08;;;;;;;24.45;100.00;94765.19;5077749;28;20024;-60
2021/07/31 10:15:50;;;;;;;3.03;1.70;;;;;;;24.32;100.00;94746.53;5083855;28;20031;-60
2021/07/31 10:18:18;;;;;;;5.50;2.30;;;;;;;24.09;100.00;94722.56;5087089;28;20380;-60
2021/07/31 10:20:49;;;;;;;4.07;1.73;;;;;;;24.21;100.00;94788.13;5091259;28;20028;-61
2021/07/31 10:23:53;;;;;;;4.22;2.08;;;;;;;24.44;100.00;94771.03;5075346;28;20016;-59
2021/07/31 10:26:29;;;;;;;2.78;1.88;;;;;;;24.63;100.00;94614.91;5093669;28;20027;-60
2021/07/31 10:29:27;;;;;;;4.45;2.33;;;;;;;24.04;100.00;94768.59;5093579;28;20028;-60
2021/07/31 10:31:54;;;;;;;5.82;2.20;;;;;;;23.93;100.00;94683.56;5082387;28;20103;-60
2021/07/31 10:34:46;;;;;;;3.92;2.17;;;;;;;23.97;100.00;94616.03;5075236;28;20020;-60
2021/07/31 10:40:30;;;;;;;3.40;1.73;;;;;;;24.26;100.00;94664.69;5093463;28;20115;-60
2021/07/31 10:42:55;;;;;;;3.80;2.03;;;;;;;24.14;100.00;94724.25;5066897;28;20036;-57
2021/07/31 10:45:23;;;;;;;6.32;2.15;;;;;;;23.93;100.00;94639.78;5093204;28;20427;-59
2021/07/31 10:47:50;;;;;;;4.15;2.20;;;;;;;23.81;100.00;94757.53;5089265;28;20502;-60
2021/07/31 10:50:27;;;;;;;4.40;1.92;;;;;;;23.94;100.00;94748.06;5093217;28;20086;-59
2021/07/31 10:53:14;;;;;;;5.75;3.08;;;;;;;24.30;100.00;94733.16;5093183;28;20020;-58
2021/07/31 10:55:42;;;;;;;4.70;1.90;;;;;;;24.61;100.00;94710.31;5093154;28;20082;-60
2021/07/31 10:58:08;;;;;;;4.60;1.92;;;;;;;24.72;100.00;94697.63;5074780;28;20031;-60
2021/07/31 11:00:38;;;;;;;7.45;2.33;;;;;;;24.39;100.00;94790.47;5092919;28;20032;-61
2021/07/31 11:03:28;;;;;;;5.15;2.30;;;;;;;23.95;100.00;94714.06;5074750;28;20097;-59
2021/07/31 11:06:05;;;;;;;5.90;2.22;;;;;;;23.43;100.00;94767.97;5092931;28;20488;-60
2021/07/31 11:08:55;;;;;;;5.13;2.30;;;;;;;23.56;100.00;94751.47;5074694;28;20034;-60
2021/07/31 11:11:25;;;;;;;4.47;2.13;;;;;;;23.82;100.00;94727.09;5092029;28;20039;-61
2021/07/31 11:13:55;;;;;;;9.02;2.33;;;;;;;23.41;100.00;94773.00;5092711;28;20103;-60
2021/07/31 11:16:21;;;;;;;5.43;2.42;;;;;;;23.57;100.00;94729.25;5079156;28;20050;-60
2021/07/31 11:18:49;;;;;;;3.80;2.28;;;;;;;23.65;100.00;94684.53;5074550;28;20028;-56
2021/07/31 11:21:26;;;;;;;5.05;2.58;;;;;;;24.14;100.00;94673.03;5074459;28;20027;-61
2021/07/31 11:24:12;;;;;;;3.97;2.28;;;;;;;24.16;100.00;94738.34;5067637;28;20024;-60
2021/07/31 11:26:45;;;;;;;7.22;2.58;;;;;;;24.82;100.00;94603.09;5074403;28;20020;-60
2021/07/31 11:29:19;;;;;;;2.95;2.00;;;;;;;25.31;100.00;94638.72;5092398;28;20024;-60
2021/07/31 11:32:14;;;;;;;3.55;2.00;;;;;;;25.54;100.00;94762.06;5074539;28;20051;-59
2021/07/31 11:34:45;;;;;;;3.60;2.05;;;;;;;25.59;100.00;94865.97;5092457;28;20433;-60
2021/07/31 11:37:11;;;;;;;3.03;1.90;;;;;;;25.64;100.00;94831.97;5092451;28;20032;-60
2021/07/31 11:39:37;;;;;;;2.83;2.20;;;;;;;26.02;100.00;94872.97;5074249;28;20019;-60
2021/07/31 11:42:06;;;;;;;4.50;2.40;;;;;;;26.13;100.00;94966.47;5092337;28;20032;-60